Terminal Aerodrome Forecast
Issued by NWS

Home | Current Version | Previous Version | Text Only | Print | Product List | Glossary On
Versions: 1 2 3 4 5 6 7 8 9 10 11 12 13 14
700
FTUS46 KHNX 122320
TAFVIS
TAF
KVIS 122320Z 1300/1324 32005KT P6SM BKN250
     FM130400 VRB03KT 4SM BR BKN250
     FM130900 00000KT 2SM BR BKN250
      TEMPO 1310/1314 3/4SM BR
     FM131700 VRB03KT 5SM HZ BKN250
     FM132200 32006KT P6SM SCT250=

USA.gov is the U.S. government's official web portal to all federal, state and local government web resources and services.